METAR Data
IDs: Format: Raw Decoded Include TAF

Data at: 1041 UTC 19 Jun 2019

PGUM 190954Z 11005KT 10SM CLR 28/23 A2982 RMK AO2 SLP089 T02830228
PGUM 190854Z 11008KT 10SM CLR 28/23 A2981 RMK AO2 SLP085 T02830228 53005
PGUM 190754Z 11010KT 10SM CLR 29/22 A2980 RMK AO2 SLP082 T02940222
PGUM 190654Z 13008KT 100V160 10SM FEW024 FEW029 31/23 A2979 RMK AO2 SLP078 T03060228
PGUM 190554Z 10011KT 10SM FEW023 SCT029 SCT036 31/23 A2979 RMK AO2 SLP079 60000 T03060228 10317 20289 58013
PGUM 190508Z 12006KT 10SM SCT025 SCT046 OVC065 29/22 A2980 RMK AO2 T02940217
PGUM 190454Z 11012G18KT 10SM SCT025 BKN029 OVC055 31/23 A2980 RMK AO2 SLP084 T03060233
PGUM 190442Z 12010KT 10SM BKN023 BKN029 BKN055 30/23 A2981 RMK AO2 T03000233

PGUM 190740Z 1908/2012 10008KT P6SM VCSH FEW020 SCT035